Time;durP1;ratioP1;P1;durP2;ratioP2;P2;SDS_P1;SDS_P2;PMS_P1;PMS_P2;Temp;Humidity;BMP_temperature;BMP_pressure;BME280_temperature;BME280_humidity;BME280_pressure;Samples;Min_cycle;Max_cycle;Signal;HPM_P1;HPM_P2
2023/12/29 00:01:32;;;;;;;5.95;2.33;;;;;;;;;;5021812;28;20387;-66
2023/12/29 00:03:58;;;;;;;11.90;3.35;;;;;;;;;;5025723;28;20022;-63
2023/12/29 00:06:25;;;;;;;7.78;3.22;;;;;;;;;;5021188;28;20025;-64
2023/12/29 00:08:51;;;;;;;4.88;2.40;;;;;;;;;;5018631;28;20540;-66
2023/12/29 00:11:18;;;;;;;6.60;2.45;;;;;;;;;;5024938;28;20021;-65
2023/12/29 00:13:44;;;;;;;13.77;3.25;;;;;;;;;;5029346;28;20087;-66
2023/12/29 00:16:10;;;;;;;6.90;2.58;;;;;;;;;;5022271;28;20477;-65
2023/12/29 00:18:39;;;;;;;7.50;2.83;;;;;;;;;;5021857;28;20041;-66
2023/12/29 00:21:08;;;;;;;6.53;2.13;;;;;;;;;;5022621;28;20408;-66
2023/12/29 00:23:35;;;;;;;8.75;2.35;;;;;;;;;;5025318;28;20124;-66
2023/12/29 00:26:01;;;;;;;9.73;2.83;;;;;;;;;;5023638;28;20025;-65
2023/12/29 00:28:27;;;;;;;6.22;2.33;;;;;;;;;;5038362;28;20041;-66
2023/12/29 00:30:53;;;;;;;7.20;2.42;;;;;;;;;;5014875;28;20064;-65
2023/12/29 00:33:23;;;;;;;4.97;2.40;;;;;;;;;;5008804;28;20125;-66
2023/12/29 00:35:49;;;;;;;9.15;2.97;;;;;;;;;;5021368;28;20116;-63
2023/12/29 00:38:15;;;;;;;10.23;2.95;;;;;;;;;;5024634;28;20083;-66
2023/12/29 00:40:42;;;;;;;8.65;2.75;;;;;;;;;;5024100;28;20021;-66
2023/12/29 00:43:08;;;;;;;7.28;2.53;;;;;;;;;;5021763;28;20041;-65
2023/12/29 00:45:35;;;;;;;14.65;3.17;;;;;;;;;;5021216;28;20038;-67
2023/12/29 00:48:02;;;;;;;7.63;2.80;;;;;;;;;;5012237;28;20033;-65
2023/12/29 00:50:29;;;;;;;5.80;2.33;;;;;;;;;;5021202;28;20104;-66
2023/12/29 00:52:55;;;;;;;18.98;3.45;;;;;;;;;;5009198;28;20034;-65
2023/12/29 00:55:21;;;;;;;6.80;2.28;;;;;;;;;;5020831;28;20083;-65
2023/12/29 00:57:47;;;;;;;12.25;2.30;;;;;;;;;;5014398;28;20057;-70
2023/12/29 01:00:14;;;;;;;12.75;2.80;;;;;;;;;;5016943;28;20500;-66
2023/12/29 01:02:40;;;;;;;3.88;1.83;;;;;;;;;;5022349;28;20536;-66
2023/12/29 01:05:06;;;;;;;4.00;2.13;;;;;;;;;;5020916;28;20033;-66
2023/12/29 01:07:33;;;;;;;7.35;2.30;;;;;;;;;;5027104;28;20022;-66
2023/12/29 01:09:59;;;;;;;8.88;2.63;;;;;;;;;;5023154;28;20059;-67
2023/12/29 01:12:26;;;;;;;2.75;1.92;;;;;;;;;;5019560;28;20176;-66
2023/12/29 01:14:52;;;;;;;5.80;2.90;;;;;;;;;;5026726;28;20049;-69
2023/12/29 01:17:18;;;;;;;2.97;2.30;;;;;;;;;;5023635;28;20109;-66
2023/12/29 01:19:44;;;;;;;8.05;2.05;;;;;;;;;;5015243;28;20407;-67
2023/12/29 01:22:11;;;;;;;7.88;2.13;;;;;;;;;;5020096;28;20435;-65
2023/12/29 01:24:37;;;;;;;12.43;3.08;;;;;;;;;;5028390;28;20017;-66
2023/12/29 01:27:05;;;;;;;1.92;1.83;;;;;;;;;;5023176;28;20537;-65
2023/12/29 01:29:31;;;;;;;8.57;3.33;;;;;;;;;;5018097;28;20155;-66
2023/12/29 01:31:57;;;;;;;6.10;2.47;;;;;;;;;;5022867;28;20033;-67
2023/12/29 01:34:23;;;;;;;14.18;2.67;;;;;;;;;;5023453;28;20143;-66
2023/12/29 01:36:49;;;;;;;7.20;2.38;;;;;;;;;;5021946;28;20041;-69
2023/12/29 01:39:17;;;;;;;5.25;2.42;;;;;;;;;;5017990;28;20056;-66
2023/12/29 01:41:43;;;;;;;10.05;2.80;;;;;;;;;;5013627;28;20040;-65
2023/12/29 01:44:22;;;;;;;5.68;2.88;;;;;;;;;;5018372;28;20029;-67
2023/12/29 01:46:50;;;;;;;8.70;2.40;;;;;;;;;;5021643;28;20026;-66
2023/12/29 01:49:17;;;;;;;5.15;2.47;;;;;;;;;;5016606;28;20662;-65
2023/12/29 01:51:44;;;;;;;7.45;3.42;;;;;;;;;;5020312;28;20033;-65
2023/12/29 01:54:11;;;;;;;6.05;2.38;;;;;;;;;;5024816;28;20526;-67
2023/12/29 01:56:37;;;;;;;9.63;2.85;;;;;;;;;;5022093;28;21222;-67
2023/12/29 01:59:04;;;;;;;6.88;1.70;;;;;;;;;;5023360;28;20045;-65
2023/12/29 02:01:30;;;;;;;6.93;2.25;;;;;;;;;;5014855;28;20524;-67
2023/12/29 02:03:57;;;;;;;9.48;2.17;;;;;;;;;;5020193;28;20038;-71
2023/12/29 02:06:26;;;;;;;7.45;2.20;;;;;;;;;;5019546;28;20036;-65
2023/12/29 02:08:52;;;;;;;4.50;2.00;;;;;;;;;;5023611;28;20029;-69
2023/12/29 02:11:18;;;;;;;8.15;2.28;;;;;;;;;;5016920;28;20029;-66
2023/12/29 02:13:45;;;;;;;7.03;3.20;;;;;;;;;;5008266;28;20034;-66
2023/12/29 02:16:24;;;;;;;8.45;3.78;;;;;;;;;;5020804;28;20694;-63
2023/12/29 02:18:51;;;;;;;14.65;2.53;;;;;;;;;;5018497;28;20026;-67
2023/12/29 02:21:17;;;;;;;7.32;3.42;;;;;;;;;;5021949;28;20089;-65
2023/12/29 02:23:44;;;;;;;7.82;2.60;;;;;;;;;;5020028;28;20540;-64
2023/12/29 02:26:11;;;;;;;12.85;2.20;;;;;;;;;;5009099;28;20381;-65
2023/12/29 02:28:40;;;;;;;9.18;2.55;;;;;;;;;;5018351;28;20061;-64
2023/12/29 02:31:13;;;;;;;2.42;2.22;;;;;;;;;;5014432;28;20280;-65
2023/12/29 02:33:41;;;;;;;6.88;2.45;;;;;;;;;;5014991;28;20033;-65
2023/12/29 02:36:08;;;;;;;5.63;2.38;;;;;;;;;;5017091;28;20188;-64
2023/12/29 02:38:34;;;;;;;6.88;2.15;;;;;;;;;;5013753;28;20033;-64
2023/12/29 02:41:01;;;;;;;8.43;2.38;;;;;;;;;;5023522;28;20033;-64
2023/12/29 02:43:32;;;;;;;13.52;2.72;;;;;;;;;;5014233;28;20033;-64
2023/12/29 02:45:59;;;;;;;6.13;1.80;;;;;;;;;;5020676;28;20030;-64
2023/12/29 02:48:25;;;;;;;10.35;2.28;;;;;;;;;;5022036;28;20033;-64
2023/12/29 02:50:51;;;;;;;10.63;2.83;;;;;;;;;;5011848;28;20032;-65
2023/12/29 02:53:17;;;;;;;11.95;2.55;;;;;;;;;;5015313;28;20038;-65
2023/12/29 02:55:43;;;;;;;2.05;1.85;;;;;;;;;;5023647;28;20044;-65
2023/12/29 02:58:10;;;;;;;6.60;2.97;;;;;;;;;;5016489;28;20069;-64
2023/12/29 03:00:36;;;;;;;11.77;2.63;;;;;;;;;;5021413;28;20029;-65
2023/12/29 03:03:02;;;;;;;8.05;2.35;;;;;;;;;;5016600;28;20025;-64
2023/12/29 03:05:28;;;;;;;5.82;2.40;;;;;;;;;;5024130;28;20185;-64
2023/12/29 03:07:54;;;;;;;8.02;1.73;;;;;;;;;;5018942;28;20079;-64
2023/12/29 03:10:21;;;;;;;9.18;2.33;;;;;;;;;;5021360;28;20022;-65
2023/12/29 03:12:47;;;;;;;5.40;3.17;;;;;;;;;;5021441;28;20080;-73
2023/12/29 03:15:14;;;;;;;3.42;1.70;;;;;;;;;;5022854;28;20115;-64
2023/12/29 03:17:40;;;;;;;5.63;2.88;;;;;;;;;;5027409;28;20558;-64
2023/12/29 03:20:07;;;;;;;10.45;2.63;;;;;;;;;;5024890;28;20021;-64
2023/12/29 03:22:34;;;;;;;9.75;2.85;;;;;;;;;;5021317;28;20092;-64
2023/12/29 03:25:00;;;;;;;16.42;4.07;;;;;;;;;;5022577;28;20548;-64
2023/12/29 03:27:26;;;;;;;15.93;3.55;;;;;;;;;;5024071;28;20029;-64
2023/12/29 03:29:52;;;;;;;10.75;2.17;;;;;;;;;;5017452;28;20013;-64
2023/12/29 03:32:22;;;;;;;6.25;3.25;;;;;;;;;;5025091;28;20485;-64
2023/12/29 03:34:49;;;;;;;4.82;2.35;;;;;;;;;;5023269;28;20030;-64
2023/12/29 03:37:15;;;;;;;7.38;2.13;;;;;;;;;;5022166;28;20037;-64
2023/12/29 03:39:41;;;;;;;5.68;2.38;;;;;;;;;;5029163;28;20044;-64
2023/12/29 03:42:07;;;;;;;5.32;1.83;;;;;;;;;;5022647;28;20120;-64
2023/12/29 03:44:33;;;;;;;13.10;2.45;;;;;;;;;;5018526;28;20026;-64
2023/12/29 03:47:00;;;;;;;10.95;2.60;;;;;;;;;;5012603;28;20500;-64
2023/12/29 03:49:26;;;;;;;11.43;2.38;;;;;;;;;;5026796;28;20477;-64
2023/12/29 03:51:52;;;;;;;6.60;2.60;;;;;;;;;;5020389;28;20547;-64
2023/12/29 03:54:19;;;;;;;7.07;2.38;;;;;;;;;;5019023;28;20113;-64
2023/12/29 03:56:46;;;;;;;3.30;2.10;;;;;;;;;;5023432;28;20568;-65
2023/12/29 03:59:13;;;;;;;5.50;2.05;;;;;;;;;;5021414;28;20540;-65
2023/12/29 04:01:41;;;;;;;7.47;2.30;;;;;;;;;;5024947;28;20489;-64
2023/12/29 04:04:07;;;;;;;9.48;2.53;;;;;;;;;;5015954;28;20375;-65
2023/12/29 04:06:34;;;;;;;7.88;2.35;;;;;;;;;;5019505;28;20016;-64
2023/12/29 04:09:00;;;;;;;4.72;2.08;;;;;;;;;;5023461;28;20112;-65
2023/12/29 04:11:26;;;;;;;5.55;2.85;;;;;;;;;;5023864;28;20034;-64
2023/12/29 04:13:53;;;;;;;3.92;2.58;;;;;;;;;;5023884;28;20041;-65
2023/12/29 04:16:19;;;;;;;3.88;2.08;;;;;;;;;;5014528;28;20112;-65
2023/12/29 04:18:49;;;;;;;6.30;2.42;;;;;;;;;;5023413;28;20529;-69
2023/12/29 04:21:15;;;;;;;6.05;2.05;;;;;;;;;;5021462;28;20099;-64
2023/12/29 04:23:41;;;;;;;4.57;2.85;;;;;;;;;;5014126;28;20032;-67
2023/12/29 04:26:08;;;;;;;3.20;2.28;;;;;;;;;;5021643;28;20323;-65
2023/12/29 04:28:34;;;;;;;5.88;2.55;;;;;;;;;;5018196;28;20120;-64
2023/12/29 04:31:00;;;;;;;5.15;2.85;;;;;;;;;;5024449;28;20354;-65
2023/12/29 04:33:30;;;;;;;3.47;2.08;;;;;;;;;;5015969;28;20034;-64
2023/12/29 04:35:56;;;;;;;10.13;2.75;;;;;;;;;;5017446;28;20048;-65
2023/12/29 04:38:22;;;;;;;12.32;2.75;;;;;;;;;;5021666;28;20029;-65
2023/12/29 04:40:49;;;;;;;7.03;2.40;;;;;;;;;;5024511;28;20134;-66
2023/12/29 04:43:15;;;;;;;7.07;2.42;;;;;;;;;;5021311;28;20025;-66
2023/12/29 04:45:41;;;;;;;12.75;2.70;;;;;;;;;;5015465;28;20025;-65
2023/12/29 04:48:07;;;;;;;9.73;2.83;;;;;;;;;;5024525;28;20025;-65
2023/12/29 04:50:33;;;;;;;3.53;1.92;;;;;;;;;;5027643;28;20019;-65
2023/12/29 04:53:00;;;;;;;5.97;2.33;;;;;;;;;;5020881;28;20033;-66
2023/12/29 04:55:26;;;;;;;7.07;2.15;;;;;;;;;;5020059;28;20034;-64
2023/12/29 04:57:52;;;;;;;7.05;2.65;;;;;;;;;;5017231;28;20443;-64
2023/12/29 05:00:18;;;;;;;2.58;2.08;;;;;;;;;;5021877;28;20096;-65
2023/12/29 05:02:45;;;;;;;2.83;1.77;;;;;;;;;;5016825;28;20044;-65
2023/12/29 05:05:11;;;;;;;7.60;2.55;;;;;;;;;;5016875;28;20041;-65
2023/12/29 05:07:37;;;;;;;12.93;2.72;;;;;;;;;;5019440;28;20410;-65
2023/12/29 05:10:03;;;;;;;15.38;2.40;;;;;;;;;;5020275;28;20022;-64
2023/12/29 05:12:30;;;;;;;5.18;2.45;;;;;;;;;;5022239;28;20028;-64
2023/12/29 05:14:56;;;;;;;16.92;2.47;;;;;;;;;;5017761;28;20034;-65
2023/12/29 05:17:22;;;;;;;7.53;3.10;;;;;;;;;;5034335;28;20041;-65
2023/12/29 05:19:49;;;;;;;7.07;2.88;;;;;;;;;;5019424;28;20030;-64
2023/12/29 05:22:17;;;;;;;4.25;2.47;;;;;;;;;;5018657;28;20245;-65
2023/12/29 05:24:45;;;;;;;9.30;2.55;;;;;;;;;;5024606;28;20021;-65
2023/12/29 05:27:11;;;;;;;13.82;2.35;;;;;;;;;;5012667;28;20191;-65
2023/12/29 05:29:40;;;;;;;7.32;2.55;;;;;;;;;;5014765;28;20529;-65
2023/12/29 05:32:06;;;;;;;6.50;2.55;;;;;;;;;;5015604;28;20033;-65
2023/12/29 05:34:33;;;;;;;9.65;2.33;;;;;;;;;;5012008;28;20033;-64
2023/12/29 05:36:59;;;;;;;3.42;1.83;;;;;;;;;;5018147;28;20477;-65
2023/12/29 05:39:25;;;;;;;6.03;2.05;;;;;;;;;;5023489;28;20029;-65
2023/12/29 05:41:51;;;;;;;10.27;3.08;;;;;;;;;;5017609;28;20037;-64
2023/12/29 05:44:18;;;;;;;4.70;1.95;;;;;;;;;;5019306;28;20036;-65
2023/12/29 05:46:47;;;;;;;6.05;2.40;;;;;;;;;;5019275;28;20068;-64
2023/12/29 05:49:13;;;;;;;8.55;2.47;;;;;;;;;;5014686;28;20071;-64
2023/12/29 05:51:40;;;;;;;10.30;3.10;;;;;;;;;;5020655;28;20275;-65
2023/12/29 05:54:06;;;;;;;5.60;2.88;;;;;;;;;;5018091;28;20109;-67
2023/12/29 05:56:32;;;;;;;4.85;2.88;;;;;;;;;;5015734;28;20126;-65
2023/12/29 05:58:58;;;;;;;7.15;2.78;;;;;;;;;;5010752;28;20057;-64
2023/12/29 06:01:24;;;;;;;14.13;2.60;;;;;;;;;;5011206;28;20026;-64
2023/12/29 06:03:52;;;;;;;2.22;1.98;;;;;;;;;;5016028;28;20045;-65
2023/12/29 06:06:18;;;;;;;10.75;2.42;;;;;;;;;;5014573;28;20398;-64
2023/12/29 06:08:44;;;;;;;5.28;2.25;;;;;;;;;;5008472;28;20052;-65
2023/12/29 06:11:15;;;;;;;8.38;2.15;;;;;;;;;;5022175;28;20113;-65
2023/12/29 06:13:42;;;;;;;11.57;2.75;;;;;;;;;;5012203;28;20017;-65
2023/12/29 06:16:08;;;;;;;4.00;2.00;;;;;;;;;;5023119;28;20029;-65
2023/12/29 06:18:34;;;;;;;6.53;1.98;;;;;;;;;;5015665;28;20052;-65
2023/12/29 06:21:03;;;;;;;6.70;2.42;;;;;;;;;;5024464;28;20022;-65
2023/12/29 06:23:29;;;;;;;3.17;2.08;;;;;;;;;;5015495;28;20030;-65
2023/12/29 06:25:55;;;;;;;8.02;2.72;;;;;;;;;;5017841;28;20099;-65
2023/12/29 06:28:21;;;;;;;3.63;2.33;;;;;;;;;;5010192;28;20026;-64
2023/12/29 06:30:48;;;;;;;4.07;2.00;;;;;;;;;;5014544;28;20587;-64
2023/12/29 06:33:14;;;;;;;6.55;1.83;;;;;;;;;;5012184;28;20037;-65
2023/12/29 06:35:40;;;;;;;12.40;2.55;;;;;;;;;;5007632;28;20057;-64
2023/12/29 06:38:06;;;;;;;15.88;2.10;;;;;;;;;;5020490;28;20034;-66
2023/12/29 06:40:32;;;;;;;6.53;1.83;;;;;;;;;;5024276;28;20100;-64
2023/12/29 06:42:58;;;;;;;2.00;1.63;;;;;;;;;;5009884;28;20063;-64
2023/12/29 06:45:25;;;;;;;8.38;2.38;;;;;;;;;;5011736;28;20029;-65
2023/12/29 06:47:51;;;;;;;3.38;2.33;;;;;;;;;;5016579;28;20033;-64
2023/12/29 06:50:17;;;;;;;4.78;2.10;;;;;;;;;;5013695;28;20056;-64
2023/12/29 06:52:43;;;;;;;11.30;2.83;;;;;;;;;;5013847;28;20061;-65
2023/12/29 06:55:10;;;;;;;9.23;2.83;;;;;;;;;;5014764;28;20654;-64
2023/12/29 06:57:36;;;;;;;3.90;3.08;;;;;;;;;;5014471;28;20160;-64
2023/12/29 07:00:03;;;;;;;3.65;2.08;;;;;;;;;;5011728;28;20380;-64
2023/12/29 07:02:29;;;;;;;4.13;2.22;;;;;;;;;;5019879;28;20025;-64
2023/12/29 07:04:55;;;;;;;4.40;1.95;;;;;;;;;;5011407;28;20033;-66
2023/12/29 07:07:21;;;;;;;8.95;2.10;;;;;;;;;;5020450;28;20522;-64
2023/12/29 07:09:48;;;;;;;2.60;1.73;;;;;;;;;;5013810;28;20037;-64
2023/12/29 07:12:15;;;;;;;6.13;2.40;;;;;;;;;;5020105;28;20033;-64
2023/12/29 07:14:41;;;;;;;6.43;2.05;;;;;;;;;;5018041;28;20025;-64
2023/12/29 07:17:08;;;;;;;4.40;2.95;;;;;;;;;;5015816;28;20062;-64
2023/12/29 07:19:36;;;;;;;3.20;1.70;;;;;;;;;;5015039;28;20037;-64
2023/12/29 07:22:06;;;;;;;6.07;2.17;;;;;;;;;;5020884;28;20069;-64
2023/12/29 07:24:33;;;;;;;12.07;3.58;;;;;;;;;;5017861;28;20025;-65
2023/12/29 07:26:59;;;;;;;15.38;2.83;;;;;;;;;;5019711;28;20030;-64
2023/12/29 07:29:26;;;;;;;2.15;1.95;;;;;;;;;;5017533;28;20025;-65
2023/12/29 07:31:52;;;;;;;5.20;2.72;;;;;;;;;;5010441;28;20038;-64
2023/12/29 07:34:18;;;;;;;5.20;1.70;;;;;;;;;;5021052;28;20021;-65
2023/12/29 07:36:45;;;;;;;8.00;1.90;;;;;;;;;;5015936;28;20038;-64
2023/12/29 07:39:11;;;;;;;5.40;1.70;;;;;;;;;;5018645;28;20378;-64
2023/12/29 07:41:44;;;;;;;2.50;1.83;;;;;;;;;;5016523;28;20408;-66
2023/12/29 07:44:11;;;;;;;2.08;1.50;;;;;;;;;;5018953;28;21031;-65
2023/12/29 07:46:39;;;;;;;4.00;2.65;;;;;;;;;;5015213;28;20026;-64
2023/12/29 07:49:05;;;;;;;5.75;2.45;;;;;;;;;;5016014;28;20025;-64
2023/12/29 07:51:31;;;;;;;8.35;1.90;;;;;;;;;;5011639;28;20131;-64
2023/12/29 07:53:57;;;;;;;4.07;1.38;;;;;;;;;;5014251;28;20041;-65
2023/12/29 07:56:24;;;;;;;4.13;2.28;;;;;;;;;;5007739;28;20040;-64
2023/12/29 07:58:50;;;;;;;7.53;2.30;;;;;;;;;;5017355;28;20467;-64
2023/12/29 08:01:16;;;;;;;2.53;1.80;;;;;;;;;;5021199;28;20429;-65
2023/12/29 08:03:43;;;;;;;2.47;2.03;;;;;;;;;;5019108;28;20065;-64
2023/12/29 08:06:09;;;;;;;2.22;1.95;;;;;;;;;;5019649;28;20028;-64
2023/12/29 08:08:35;;;;;;;6.35;1.80;;;;;;;;;;5020121;28;20036;-64
2023/12/29 08:11:02;;;;;;;11.02;2.60;;;;;;;;;;5022051;28;20124;-64
2023/12/29 08:13:28;;;;;;;2.15;1.60;;;;;;;;;;5008701;28;20085;-64
2023/12/29 08:15:54;;;;;;;3.75;1.77;;;;;;;;;;5015704;28;20516;-64
2023/12/29 08:18:21;;;;;;;1.98;1.48;;;;;;;;;;5016691;28;20128;-64
2023/12/29 08:20:47;;;;;;;8.48;2.45;;;;;;;;;;5009390;28;20044;-64
2023/12/29 08:23:13;;;;;;;4.15;1.80;;;;;;;;;;5012668;28;20033;-64
2023/12/29 08:25:43;;;;;;;12.77;2.28;;;;;;;;;;5016537;28;20394;-64
2023/12/29 08:28:09;;;;;;;6.22;2.42;;;;;;;;;;5023427;28;20037;-64
2023/12/29 08:30:37;;;;;;;4.50;1.70;;;;;;;;;;5022683;28;20079;-64
2023/12/29 08:33:04;;;;;;;6.78;2.03;;;;;;;;;;5010693;28;20467;-64
2023/12/29 08:35:30;;;;;;;11.52;2.05;;;;;;;;;;5016751;28;20537;-64
2023/12/29 08:37:56;;;;;;;13.68;2.65;;;;;;;;;;5018712;28;20025;-63
2023/12/29 08:40:22;;;;;;;11.15;2.03;;;;;;;;;;5027660;28;20041;-63
2023/12/29 08:42:49;;;;;;;4.35;1.80;;;;;;;;;;5013975;28;20230;-64
2023/12/29 08:45:15;;;;;;;5.85;2.05;;;;;;;;;;5016816;28;20591;-64
2023/12/29 08:47:41;;;;;;;8.13;2.03;;;;;;;;;;5010911;28;20033;-64
2023/12/29 08:50:08;;;;;;;7.75;2.15;;;;;;;;;;5004268;28;20109;-64
2023/12/29 08:52:34;;;;;;;4.30;2.45;;;;;;;;;;5017870;28;20559;-67
2023/12/29 08:55:00;;;;;;;5.68;2.28;;;;;;;;;;5012213;28;20461;-64
2023/12/29 08:57:26;;;;;;;6.70;2.03;;;;;;;;;;5007068;28;20053;-64
2023/12/29 08:59:52;;;;;;;13.38;2.58;;;;;;;;;;5017470;28;20532;-64
2023/12/29 09:02:18;;;;;;;2.72;1.67;;;;;;;;;;5009141;28;20525;-64
2023/12/29 09:04:45;;;;;;;3.50;1.83;;;;;;;;;;5022553;28;20026;-64
2023/12/29 09:07:11;;;;;;;1.63;1.52;;;;;;;;;;5006209;28;20555;-64
2023/12/29 09:09:37;;;;;;;2.10;1.77;;;;;;;;;;5009023;28;20349;-64
2023/12/29 09:12:03;;;;;;;2.63;1.85;;;;;;;;;;5011330;28;20025;-64
2023/12/29 09:14:32;;;;;;;8.55;2.40;;;;;;;;;;5014553;28;20050;-67
2023/12/29 09:16:58;;;;;;;6.63;2.22;;;;;;;;;;5005192;28;20029;-64
2023/12/29 09:19:25;;;;;;;2.13;1.67;;;;;;;;;;5020028;28;20025;-64
2023/12/29 09:21:51;;;;;;;5.05;1.90;;;;;;;;;;5015522;28;20032;-64
2023/12/29 09:24:17;;;;;;;6.95;2.33;;;;;;;;;;5010689;28;20057;-64
2023/12/29 09:26:44;;;;;;;5.82;2.20;;;;;;;;;;5011293;28;20022;-64
2023/12/29 09:29:10;;;;;;;10.32;1.92;;;;;;;;;;5018801;28;20025;-65
2023/12/29 09:31:36;;;;;;;8.60;2.92;;;;;;;;;;5007576;28;20595;-64
2023/12/29 09:34:02;;;;;;;3.53;1.58;;;;;;;;;;5018770;28;20036;-64
2023/12/29 09:36:28;;;;;;;11.63;2.80;;;;;;;;;;5007262;28;20030;-64
2023/12/29 09:38:55;;;;;;;2.85;2.10;;;;;;;;;;5006982;28;20078;-64
2023/12/29 09:41:23;;;;;;;1.50;1.40;;;;;;;;;;5012598;28;20030;-64
2023/12/29 09:43:52;;;;;;;6.35;1.85;;;;;;;;;;5011210;28;20073;-64
2023/12/29 09:46:19;;;;;;;2.60;2.00;;;;;;;;;;5004887;28;20328;-64
2023/12/29 09:48:48;;;;;;;9.10;2.15;;;;;;;;;;5019096;28;20121;-64
2023/12/29 09:51:16;;;;;;;6.97;2.40;;;;;;;;;;5012365;28;20100;-64
2023/12/29 09:53:42;;;;;;;5.57;1.83;;;;;;;;;;5011513;28;20036;-64
2023/12/29 09:56:09;;;;;;;3.97;1.98;;;;;;;;;;5018184;28;20516;-63
2023/12/29 09:58:38;;;;;;;2.13;1.65;;;;;;;;;;5011175;28;20414;-64
2023/12/29 10:01:06;;;;;;;9.45;2.28;;;;;;;;;;5011464;28;20141;-64
2023/12/29 10:03:33;;;;;;;1.63;1.50;;;;;;;;;;5014133;28;20026;-64
2023/12/29 10:06:02;;;;;;;8.57;2.05;;;;;;;;;;5013951;28;20053;-64
2023/12/29 10:08:28;;;;;;;4.75;2.03;;;;;;;;;;5014811;28;20107;-64
2023/12/29 10:10:59;;;;;;;2.35;2.13;;;;;;;;;;5013372;28;20033;-64
2023/12/29 10:13:27;;;;;;;7.28;2.15;;;;;;;;;;5009506;28;20030;-64
2023/12/29 10:15:57;;;;;;;2.15;1.80;;;;;;;;;;5017614;28;20294;-64
2023/12/29 10:18:29;;;;;;;2.08;1.50;;;;;;;;;;5008951;28;20033;-64
2023/12/29 10:21:14;;;;;;;4.15;1.90;;;;;;;;;;5021686;28;20493;-64
2023/12/29 10:23:44;;;;;;;6.05;2.05;;;;;;;;;;5011194;28;20505;-64
2023/12/29 10:26:19;;;;;;;6.35;2.25;;;;;;;;;;5011716;28;20028;-64
2023/12/29 10:28:48;;;;;;;5.85;2.08;;;;;;;;;;5008527;28;20493;-64
2023/12/29 10:31:16;;;;;;;3.45;2.15;;;;;;;;;;5007513;28;20030;-63
2023/12/29 10:33:42;;;;;;;1.50;1.40;;;;;;;;;;5025068;28;20018;-69
2023/12/29 10:36:10;;;;;;;3.67;1.60;;;;;;;;;;5019489;28;20033;-64
2023/12/29 10:38:41;;;;;;;1.40;1.30;;;;;;;;;;5011965;28;20104;-63
2023/12/29 10:41:14;;;;;;;2.70;1.65;;;;;;;;;;5011900;28;20597;-64
2023/12/29 10:43:41;;;;;;;1.70;1.50;;;;;;;;;;5015366;28;20056;-64
2023/12/29 10:46:10;;;;;;;6.18;2.00;;;;;;;;;;5013586;28;20076;-64
2023/12/29 10:48:37;;;;;;;2.08;1.52;;;;;;;;;;5016806;28;20064;-64
2023/12/29 10:51:04;;;;;;;1.67;1.58;;;;;;;;;;5011777;28;21809;-71
2023/12/29 10:53:33;;;;;;;1.85;1.67;;;;;;;;;;5021555;28;20074;-72
2023/12/29 10:56:00;;;;;;;2.83;1.73;;;;;;;;;;5020933;28;20284;-72
2023/12/29 10:58:31;;;;;;;1.98;1.40;;;;;;;;;;5023170;28;20084;-71
2023/12/29 11:00:57;;;;;;;10.13;1.80;;;;;;;;;;5022634;28;20029;-72
2023/12/29 11:03:24;;;;;;;1.33;1.33;;;;;;;;;;5032270;28;20103;-72
2023/12/29 11:05:51;;;;;;;1.40;1.40;;;;;;;;;;5020611;28;20025;-72
2023/12/29 11:08:21;;;;;;;1.20;1.20;;;;;;;;;;5017038;28;20021;-72
2023/12/29 11:10:51;;;;;;;1.75;1.45;;;;;;;;;;5023824;28;20479;-72
2023/12/29 11:13:17;;;;;;;1.80;1.50;;;;;;;;;;5013450;28;20061;-72
2023/12/29 11:15:45;;;;;;;1.33;1.33;;;;;;;;;;5020356;28;20219;-72
2023/12/29 11:18:15;;;;;;;1.42;1.40;;;;;;;;;;5026839;28;20554;-72
2023/12/29 11:20:42;;;;;;;1.20;1.20;;;;;;;;;;5027163;28;20022;-73
2023/12/29 11:23:10;;;;;;;1.15;1.15;;;;;;;;;;5027772;28;20088;-72
2023/12/29 11:25:36;;;;;;;1.17;1.17;;;;;;;;;;5011389;28;20017;-72
2023/12/29 11:28:02;;;;;;;3.17;1.73;;;;;;;;;;5023375;28;20149;-72
2023/12/29 11:30:29;;;;;;;2.10;1.95;;;;;;;;;;5029491;28;20046;-72
2023/12/29 11:32:58;;;;;;;2.55;2.17;;;;;;;;;;5022801;28;20315;-72
2023/12/29 11:35:29;;;;;;;6.82;2.28;;;;;;;;;;5026564;28;20116;-72
2023/12/29 11:38:07;;;;;;;3.90;2.05;;;;;;;;;;5028180;28;20069;-71
2023/12/29 11:41:06;;;;;;;8.05;3.00;;;;;;;;;;5022940;28;20029;-72
2023/12/29 11:43:33;;;;;;;2.08;1.88;;;;;;;;;;5007826;28;20046;-72
2023/12/29 11:45:59;;;;;;;2.30;2.03;;;;;;;;;;5018379;28;20031;-73
2023/12/29 11:48:58;;;;;;;5.75;2.70;;;;;;;;;;5020797;28;20037;-72
2023/12/29 11:51:31;;;;;;;1.70;1.60;;;;;;;;;;5006681;28;20034;-71
2023/12/29 11:53:57;;;;;;;4.40;3.70;;;;;;;;;;5024752;28;20026;-71
2023/12/29 11:56:33;;;;;;;4.20;2.55;;;;;;;;;;5019001;28;20053;-71
2023/12/29 11:59:15;;;;;;;3.83;2.05;;;;;;;;;;5021251;28;20053;-71
2023/12/29 12:01:42;;;;;;;1.85;1.75;;;;;;;;;;5016657;28;20641;-71
2023/12/29 12:04:27;;;;;;;2.47;2.13;;;;;;;;;;5025698;28;20108;-72
2023/12/29 12:06:53;;;;;;;1.98;1.80;;;;;;;;;;5016089;28;20026;-72
2023/12/29 12:09:25;;;;;;;1.88;1.63;;;;;;;;;;5033209;28;20025;-72
2023/12/29 12:11:52;;;;;;;1.20;1.20;;;;;;;;;;5026091;28;20600;-72
2023/12/29 12:14:36;;;;;;;1.40;1.30;;;;;;;;;;5025974;28;20505;-71
2023/12/29 12:17:03;;;;;;;4.75;1.80;;;;;;;;;;5013971;28;20274;-72
2023/12/29 12:19:35;;;;;;;2.22;2.03;;;;;;;;;;5026103;28;20120;-72
2023/12/29 12:22:02;;;;;;;5.00;2.13;;;;;;;;;;5027714;28;20344;-72
2023/12/29 12:24:28;;;;;;;1.52;1.42;;;;;;;;;;5027071;28;20022;-72
2023/12/29 12:26:58;;;;;;;1.65;1.55;;;;;;;;;;5025485;28;20029;-73
2023/12/29 12:29:25;;;;;;;1.73;1.52;;;;;;;;;;5026109;28;20096;-73
2023/12/29 12:31:54;;;;;;;1.75;1.65;;;;;;;;;;5018499;28;20017;-72
2023/12/29 12:34:20;;;;;;;1.45;1.40;;;;;;;;;;5018649;28;20037;-72
2023/12/29 12:36:51;;;;;;;2.35;1.75;;;;;;;;;;5013606;28;20453;-72
2023/12/29 12:39:17;;;;;;;1.85;1.50;;;;;;;;;;5028662;28;20079;-72
2023/12/29 12:41:43;;;;;;;1.63;1.52;;;;;;;;;;5029760;28;20452;-72
2023/12/29 12:44:13;;;;;;;1.85;1.40;;;;;;;;;;5019402;28;20521;-72
2023/12/29 12:46:50;;;;;;;1.42;1.33;;;;;;;;;;5013311;28;20025;-72
2023/12/29 12:49:17;;;;;;;1.70;1.60;;;;;;;;;;5028392;28;20089;-72
2023/12/29 12:51:44;;;;;;;1.77;1.67;;;;;;;;;;5019509;28;20151;-72
2023/12/29 12:54:10;;;;;;;1.80;1.70;;;;;;;;;;5020171;28;20037;-72
2023/12/29 12:56:37;;;;;;;3.03;2.28;;;;;;;;;;5024139;28;20040;-72
2023/12/29 12:59:04;;;;;;;1.52;1.42;;;;;;;;;;5021879;28;20505;-72
2023/12/29 13:01:35;;;;;;;2.13;1.50;;;;;;;;;;5015462;28;20500;-72
2023/12/29 13:04:01;;;;;;;2.03;1.63;;;;;;;;;;5026236;28;20033;-72
2023/12/29 13:06:27;;;;;;;1.00;1.00;;;;;;;;;;5024314;28;20018;-72
2023/12/29 13:08:54;;;;;;;2.65;1.55;;;;;;;;;;5020817;28;20473;-72
2023/12/29 13:11:21;;;;;;;3.30;2.13;;;;;;;;;;5028335;28;20028;-73
2023/12/29 13:13:48;;;;;;;3.17;1.70;;;;;;;;;;5018221;28;20033;-72
2023/12/29 13:16:14;;;;;;;3.78;2.20;;;;;;;;;;5018330;28;20022;-72
2023/12/29 13:18:40;;;;;;;2.63;1.80;;;;;;;;;;5021793;28;20097;-71
2023/12/29 13:21:07;;;;;;;2.20;1.75;;;;;;;;;;5023001;28;20038;-72
2023/12/29 13:23:33;;;;;;;2.58;2.28;;;;;;;;;;5016986;28;20054;-72
2023/12/29 13:26:02;;;;;;;1.95;1.70;;;;;;;;;;5024924;28;20338;-72
2023/12/29 13:28:33;;;;;;;2.13;1.80;;;;;;;;;;5025757;28;20029;-72
2023/12/29 13:31:00;;;;;;;3.05;2.08;;;;;;;;;;5020949;28;20116;-72
2023/12/29 13:33:29;;;;;;;2.85;2.50;;;;;;;;;;5025163;28;20108;-71
2023/12/29 13:35:58;;;;;;;3.92;2.03;;;;;;;;;;5015198;28;20401;-72
2023/12/29 13:38:33;;;;;;;2.33;2.00;;;;;;;;;;5018925;28;20041;-72
2023/12/29 13:41:02;;;;;;;2.45;1.80;;;;;;;;;;5018513;28;20041;-72
2023/12/29 13:43:30;;;;;;;4.97;2.33;;;;;;;;;;5006434;28;20026;-72
2023/12/29 13:45:57;;;;;;;1.65;1.45;;;;;;;;;;5012503;28;20129;-72
2023/12/29 13:48:23;;;;;;;1.60;1.50;;;;;;;;;;5018427;28;20060;-72
2023/12/29 13:50:50;;;;;;;1.40;1.40;;;;;;;;;;5018132;28;20116;-72
2023/12/29 13:53:20;;;;;;;2.20;2.00;;;;;;;;;;5024811;28;20028;-72
2023/12/29 13:55:46;;;;;;;2.42;1.50;;;;;;;;;;5013817;28;20038;-73
2023/12/29 13:58:13;;;;;;;1.58;1.48;;;;;;;;;;5020459;28;20107;-71
2023/12/29 14:00:43;;;;;;;3.60;3.30;;;;;;;;;;5019157;28;20090;-71
2023/12/29 14:03:23;;;;;;;12.68;6.72;;;;;;;;;;5021518;28;20471;-72
2023/12/29 14:05:56;;;;;;;5.55;5.03;;;;;;;;;;5021620;28;20486;-71
2023/12/29 14:08:27;;;;;;;5.97;4.53;;;;;;;;;;5019289;28;20136;-72
2023/12/29 14:10:53;;;;;;;5.97;4.60;;;;;;;;;;5028342;28;20029;-72
2023/12/29 14:13:20;;;;;;;21.08;18.23;;;;;;;;;;5016409;28;20566;-72
2023/12/29 14:15:51;;;;;;;6.57;6.03;;;;;;;;;;5009306;28;20045;-72
2023/12/29 14:18:28;;;;;;;3.78;3.42;;;;;;;;;;5019608;28;20033;-72
2023/12/29 14:20:55;;;;;;;6.80;3.85;;;;;;;;;;5006851;28;20026;-72
2023/12/29 14:23:21;;;;;;;9.65;6.05;;;;;;;;;;5017669;28;20414;-72
2023/12/29 14:25:47;;;;;;;5.68;3.60;;;;;;;;;;5022430;28;20038;-72
2023/12/29 14:28:17;;;;;;;5.70;3.20;;;;;;;;;;5011074;28;20100;-72
2023/12/29 14:30:44;;;;;;;6.88;4.38;;;;;;;;;;5013924;28;20040;-72
2023/12/29 14:33:10;;;;;;;7.05;3.45;;;;;;;;;;5022800;28;20025;-72
2023/12/29 14:35:36;;;;;;;9.85;5.22;;;;;;;;;;5015690;28;20215;-72
2023/12/29 14:38:04;;;;;;;10.27;3.60;;;;;;;;;;5018741;28;20034;-72
2023/12/29 14:40:30;;;;;;;10.18;7.43;;;;;;;;;;5021153;28;20032;-71
2023/12/29 14:42:56;;;;;;;11.93;6.32;;;;;;;;;;5020363;28;20033;-72